Time;durP1;ratioP1;P1;durP2;ratioP2;P2;SDS_P1;SDS_P2;PMS_P1;PMS_P2;Temp;Humidity;BMP_temperature;BMP_pressure;BME280_temperature;BME280_humidity;BME280_pressure;Samples;Min_cycle;Max_cycle;Signal;HPM_P1;HPM_P2
2021/01/14 00:00:34;;;;;;;7.95;4.28;;;4.60;56.30;;;;;;5013486;28;20050;-78
2021/01/14 00:03:01;;;;;;;8.82;5.20;;;4.60;56.40;;;;;;5028953;28;20549;-79
2021/01/14 00:05:26;;;;;;;6.40;3.30;;;4.60;56.40;;;;;;5012706;28;20061;-78
2021/01/14 00:07:53;;;;;;;5.00;2.97;;;4.70;56.40;;;;;;5012960;28;20049;-78
2021/01/14 00:10:20;;;;;;;6.47;4.00;;;4.70;56.30;;;;;;5010375;28;20037;-78
2021/01/14 00:12:46;;;;;;;7.95;4.43;;;4.70;56.30;;;;;;5011606;28;20034;-79
2021/01/14 00:15:14;;;;;;;6.55;3.75;;;4.70;56.40;;;;;;5012394;28;20088;-79
2021/01/14 00:17:40;;;;;;;6.32;3.90;;;4.70;56.40;;;;;;5013432;28;20025;-79
2021/01/14 00:20:09;;;;;;;4.70;3.35;;;4.70;56.50;;;;;;5011448;28;20045;-78
2021/01/14 00:22:35;;;;;;;5.30;3.45;;;4.80;56.60;;;;;;5027817;28;20030;-79
2021/01/14 00:25:01;;;;;;;6.70;3.90;;;4.80;56.60;;;;;;5046229;28;20116;-78
2021/01/14 00:27:27;;;;;;;4.55;3.08;;;4.90;56.60;;;;;;5011111;28;20232;-79
2021/01/14 00:29:53;;;;;;;5.57;3.60;;;4.90;56.40;;;;;;5015189;28;20068;-79
2021/01/14 00:32:18;;;;;;;5.68;3.38;;;4.90;56.40;;;;;;5013479;28;20109;-78
2021/01/14 00:34:44;;;;;;;5.70;3.70;;;4.90;56.30;;;;;;5005927;28;20038;-79
2021/01/14 00:39:55;;;;;;;8.93;3.95;;;5.00;56.30;;;;;;5002464;28;20458;-78
2021/01/14 00:42:20;;;;;;;7.55;4.18;;;5.00;56.30;;;;;;5013236;28;20030;-78
2021/01/14 00:44:46;;;;;;;6.07;3.85;;;5.00;56.30;;;;;;5013418;28;20537;-78
2021/01/14 00:47:12;;;;;;;5.93;3.72;;;5.10;56.20;;;;;;5028867;28;20456;-78
2021/01/14 00:49:38;;;;;;;5.40;3.75;;;5.10;56.30;;;;;;5011843;28;20056;-78
2021/01/14 00:52:04;;;;;;;9.13;4.40;;;5.20;56.30;;;;;;5027297;28;20030;-78
2021/01/14 00:54:30;;;;;;;7.13;4.03;;;5.20;56.10;;;;;;5010204;28;20164;-78
2021/01/14 00:56:55;;;;;;;8.32;5.00;;;5.30;56.10;;;;;;5010886;28;20539;-78
2021/01/14 00:59:21;;;;;;;8.70;4.72;;;5.30;56.10;;;;;;5012028;28;20459;-78
2021/01/14 01:01:47;;;;;;;7.60;3.83;;;5.40;56.20;;;;;;5012924;28;20022;-78
2021/01/14 01:04:13;;;;;;;9.80;5.22;;;5.40;56.10;;;;;;5031414;28;20165;-78
2021/01/14 01:06:42;;;;;;;6.35;3.85;;;5.40;56.10;;;;;;5016231;28;20590;-78
2021/01/14 01:09:09;;;;;;;6.20;3.63;;;5.50;56.10;;;;;;5015877;28;20504;-78
2021/01/14 01:11:36;;;;;;;8.95;4.13;;;5.50;56.00;;;;;;5016432;28;20501;-79
2021/01/14 01:14:03;;;;;;;5.47;3.50;;;5.60;56.20;;;;;;5016269;28;20022;-79
2021/01/14 01:16:29;;;;;;;6.97;4.00;;;5.60;56.10;;;;;;5014685;28;20503;-79
2021/01/14 01:18:54;;;;;;;6.38;4.03;;;5.70;55.90;;;;;;5017227;28;20030;-79
2021/01/14 01:21:20;;;;;;;6.95;4.25;;;5.80;55.80;;;;;;5015476;28;20080;-79
2021/01/14 01:23:46;;;;;;;7.45;3.97;;;5.80;55.80;;;;;;5013885;28;20022;-79
2021/01/14 01:26:16;;;;;;;5.28;3.67;;;5.80;55.70;;;;;;5015722;28;20068;-79
2021/01/14 01:28:42;;;;;;;5.22;3.65;;;5.90;55.70;;;;;;5014148;28;20052;-79
2021/01/14 01:31:11;;;;;;;8.50;4.57;;;6.00;55.40;;;;;;5029286;28;20403;-80
2021/01/14 01:33:37;;;;;;;7.82;3.97;;;6.00;55.10;;;;;;5014155;28;20036;-79
2021/01/14 01:36:03;;;;;;;6.30;3.95;;;6.00;55.20;;;;;;5012993;28;20034;-79
2021/01/14 01:38:29;;;;;;;9.38;4.20;;;6.10;55.10;;;;;;5015375;28;20030;-79
2021/01/14 01:41:04;;;;;;;6.40;3.55;;;6.10;54.90;;;;;;5029838;28;20121;-79
2021/01/14 01:43:30;;;;;;;8.55;3.67;;;6.10;54.80;;;;;;5014261;28;20025;-79
2021/01/14 01:45:59;;;;;;;7.65;4.50;;;6.20;54.90;;;;;;5015297;28;20475;-80
2021/01/14 01:48:25;;;;;;;6.30;4.20;;;6.20;54.80;;;;;;5015300;28;20045;-78
2021/01/14 01:50:56;;;;;;;6.38;4.00;;;6.30;54.70;;;;;;5030261;28;20495;-78
2021/01/14 01:53:22;;;;;;;7.38;4.20;;;6.30;54.60;;;;;;5007302;28;20431;-79
2021/01/14 01:55:49;;;;;;;7.10;4.05;;;6.40;54.60;;;;;;5014420;28;20030;-79
2021/01/14 01:58:18;;;;;;;7.75;4.72;;;6.40;54.40;;;;;;5014945;28;20055;-79
2021/01/14 02:00:43;;;;;;;6.50;4.35;;;6.40;54.50;;;;;;5014580;28;20084;-78
2021/01/14 02:03:09;;;;;;;8.80;4.38;;;6.40;54.30;;;;;;5010367;28;20472;-78
2021/01/14 02:05:35;;;;;;;8.32;4.63;;;6.40;54.40;;;;;;4995514;28;20033;-78
2021/01/14 02:08:09;;;;;;;11.43;4.65;;;6.40;54.40;;;;;;4995366;28;20476;-78
2021/01/14 02:10:51;;;;;;;7.05;4.13;;;6.50;54.30;;;;;;5010653;28;20087;-79
2021/01/14 02:13:33;;;;;;;6.28;4.00;;;6.50;54.30;;;;;;5014650;28;20058;-79
2021/01/14 02:16:02;;;;;;;8.70;4.47;;;6.50;54.20;;;;;;5014810;28;20061;-79
2021/01/14 02:18:29;;;;;;;14.70;5.78;;;6.50;54.30;;;;;;5014650;28;20037;-79
2021/01/14 02:20:59;;;;;;;7.30;4.80;;;6.50;54.30;;;;;;5013956;28;20133;-79
2021/01/14 02:23:56;;;;;;;8.25;4.15;;;6.50;54.30;;;;;;5014491;28;20427;-78
2021/01/14 02:26:24;;;;;;;6.68;4.45;;;6.50;54.20;;;;;;5012978;28;20022;-78
2021/01/14 02:28:52;;;;;;;7.35;4.53;;;6.50;54.10;;;;;;5014112;28;20450;-79
2021/01/14 02:31:19;;;;;;;6.82;4.80;;;6.50;54.20;;;;;;5014421;28;20026;-78
2021/01/14 02:33:47;;;;;;;7.93;4.93;;;6.50;54.10;;;;;;5014411;28;20053;-79
2021/01/14 02:36:13;;;;;;;14.95;5.40;;;6.60;54.30;;;;;;5014224;28;20018;-78
2021/01/14 02:38:39;;;;;;;6.78;4.40;;;6.60;54.20;;;;;;5029597;28;20053;-79
2021/01/14 02:41:05;;;;;;;7.72;5.07;;;6.60;54.20;;;;;;5002588;28;20500;-79
2021/01/14 02:43:31;;;;;;;7.32;4.57;;;6.60;54.20;;;;;;4994762;28;20030;-79
2021/01/14 02:45:57;;;;;;;8.90;5.50;;;6.60;54.20;;;;;;5007764;28;20026;-79
2021/01/14 02:48:46;;;;;;;7.45;5.07;;;6.60;54.40;;;;;;5014207;28;20037;-78
2021/01/14 02:51:41;;;;;;;8.27;4.93;;;6.60;54.60;;;;;;5013966;28;20061;-79
2021/01/14 02:54:08;;;;;;;;;;;6.60;54.50;;;;;;5014073;28;20415;-77
2021/01/14 02:56:36;;;;;;;8.35;5.05;;;6.60;54.60;;;;;;5029362;28;19960;-77
2021/01/14 02:59:02;;;;;;;8.77;5.05;;;6.60;54.60;;;;;;5028905;28;20399;-79
2021/01/14 03:01:28;;;;;;;8.32;5.13;;;6.60;54.90;;;;;;5014060;28;20022;-77
2021/01/14 03:03:54;;;;;;;8.10;5.00;;;6.60;55.00;;;;;;5014038;28;20026;-77
2021/01/14 03:06:19;;;;;;;7.70;4.72;;;6.60;55.10;;;;;;5013893;28;20029;-80
2021/01/14 03:08:46;;;;;;;7.28;4.85;;;6.70;55.40;;;;;;5013646;28;20034;-78
2021/01/14 03:11:13;;;;;;;8.15;4.82;;;6.60;55.40;;;;;;5013870;28;20382;-77
2021/01/14 03:13:39;;;;;;;9.15;5.00;;;6.70;55.50;;;;;;5012629;28;20025;-77
2021/01/14 03:16:07;;;;;;;8.13;4.45;;;6.60;55.60;;;;;;5008514;28;20030;-77
2021/01/14 03:18:32;;;;;;;8.57;4.75;;;6.60;55.60;;;;;;4994853;28;20033;-77
2021/01/14 03:20:58;;;;;;;8.40;4.75;;;6.60;55.40;;;;;;5013494;28;20054;-77
2021/01/14 03:23:24;;;;;;;9.85;4.57;;;6.60;55.60;;;;;;5013730;28;20018;-77
2021/01/14 03:25:49;;;;;;;7.55;4.85;;;6.60;55.50;;;;;;5011867;28;20028;-77
2021/01/14 03:28:15;;;;;;;7.25;4.93;;;6.60;55.70;;;;;;5013579;28;20033;-77
2021/01/14 03:30:41;;;;;;;7.20;4.25;;;6.60;55.70;;;;;;5026931;28;20541;-80
2021/01/14 03:33:06;;;;;;;21.60;5.22;;;6.60;55.70;;;;;;5012535;28;20056;-78
2021/01/14 03:35:32;;;;;;;8.10;5.32;;;6.60;55.70;;;;;;5012692;28;20513;-77
2021/01/14 03:37:58;;;;;;;9.10;4.90;;;6.60;55.50;;;;;;5013467;28;20348;-78
2021/01/14 03:40:24;;;;;;;8.00;4.95;;;6.60;55.40;;;;;;5012672;28;20108;-78
2021/01/14 03:42:49;;;;;;;7.63;4.68;;;6.70;55.60;;;;;;5013429;28;20471;-78
2021/01/14 03:45:16;;;;;;;7.70;4.93;;;6.70;55.80;;;;;;5013436;28;20076;-78
2021/01/14 03:47:41;;;;;;;9.18;5.72;;;6.70;56.20;;;;;;5013400;28;20030;-78
2021/01/14 03:50:08;;;;;;;6.88;4.63;;;6.70;56.60;;;;;;5012980;28;20025;-77
2021/01/14 03:52:34;;;;;;;6.82;4.45;;;6.60;57.20;;;;;;5013223;28;20490;-78
2021/01/14 03:55:00;;;;;;;10.02;5.05;;;6.60;57.40;;;;;;5012624;28;20034;-78
2021/01/14 03:57:26;;;;;;;8.55;5.30;;;6.60;57.90;;;;;;5013010;28;20472;-78
2021/01/14 03:59:52;;;;;;;7.95;5.40;;;6.40;58.30;;;;;;5012731;28;20033;-77
2021/01/14 04:02:17;;;;;;;7.25;4.82;;;6.30;58.40;;;;;;5013078;28;20022;-78
2021/01/14 04:04:43;;;;;;;8.02;4.55;;;6.30;58.50;;;;;;5013061;28;20495;-77
2021/01/14 04:07:11;;;;;;;5.93;4.60;;;6.20;58.60;;;;;;5012980;28;20030;-77
2021/01/14 04:09:37;;;;;;;7.50;4.10;;;6.20;58.90;;;;;;5012751;28;20045;-77
2021/01/14 04:12:03;;;;;;;10.48;5.50;;;6.20;58.90;;;;;;5012964;28;20026;-77
2021/01/14 04:14:29;;;;;;;11.00;4.70;;;6.20;59.30;;;;;;5012611;28;20029;-78
2021/01/14 04:16:55;;;;;;;14.90;4.93;;;6.10;59.20;;;;;;4993403;28;20030;-78
2021/01/14 04:19:21;;;;;;;6.00;4.18;;;6.10;59.00;;;;;;5011171;28;20029;-78
2021/01/14 04:21:47;;;;;;;7.30;4.78;;;6.10;59.10;;;;;;5012739;28;20480;-78
2021/01/14 04:24:13;;;;;;;6.43;4.25;;;6.00;59.30;;;;;;5012599;28;20026;-78
2021/01/14 04:26:39;;;;;;;13.98;5.80;;;5.90;59.30;;;;;;5013156;28;20030;-78
2021/01/14 04:29:05;;;;;;;7.35;3.55;;;5.90;59.40;;;;;;5013024;28;20117;-78
2021/01/14 04:31:31;;;;;;;5.63;3.38;;;5.90;59.30;;;;;;5013590;28;20029;-78
2021/01/14 04:33:58;;;;;;;6.47;3.05;;;5.80;59.20;;;;;;5013582;28;20414;-78
2021/01/14 04:36:23;;;;;;;7.18;3.40;;;5.80;59.20;;;;;;5014892;28;20030;-78
2021/01/14 04:38:49;;;;;;;6.88;3.60;;;5.80;59.20;;;;;;5017108;28;20029;-78
2021/01/14 04:41:20;;;;;;;9.55;3.63;;;5.80;59.30;;;;;;5017202;28;20022;-78
2021/01/14 04:43:47;;;;;;;6.95;3.58;;;5.70;59.20;;;;;;5017792;28;20029;-78
2021/01/14 04:46:13;;;;;;;9.68;3.10;;;5.70;59.10;;;;;;5017161;28;20026;-78
2021/01/14 04:48:43;;;;;;;5.05;3.05;;;5.70;59.10;;;;;;5017062;28;20471;-78
2021/01/14 04:51:14;;;;;;;4.28;3.10;;;5.70;59.00;;;;;;5017097;28;20045;-78
2021/01/14 04:53:41;;;;;;;4.65;2.80;;;5.70;58.70;;;;;;5017071;28;20018;-78
2021/01/14 04:56:09;;;;;;;3.47;2.28;;;5.70;58.60;;;;;;5016141;28;20105;-77
2021/01/14 04:58:39;;;;;;;4.13;2.25;;;5.70;58.50;;;;;;5016200;28;20084;-78
2021/01/14 05:01:20;;;;;;;5.55;2.30;;;5.70;58.50;;;;;;5015760;28;20030;-78
2021/01/14 05:03:48;;;;;;;4.43;2.10;;;5.70;58.40;;;;;;5022911;28;20025;-79
2021/01/14 05:06:24;;;;;;;3.55;2.17;;;5.70;58.30;;;;;;5017975;28;20510;-78
2021/01/14 05:09:14;;;;;;;6.40;2.05;;;5.60;58.20;;;;;;5017231;28;20057;-78
2021/01/14 05:11:44;;;;;;;4.53;1.70;;;5.70;58.10;;;;;;5015912;28;20018;-79
2021/01/14 05:14:10;;;;;;;5.57;1.60;;;5.60;57.90;;;;;;5017172;28;20030;-78
2021/01/14 05:16:35;;;;;;;4.07;1.50;;;5.60;57.80;;;;;;5016330;28;20018;-79
2021/01/14 05:19:01;;;;;;;2.58;1.80;;;5.50;57.60;;;;;;5031778;28;20022;-78
2021/01/14 05:21:33;;;;;;;4.20;1.80;;;5.50;57.60;;;;;;5016829;28;20495;-79
2021/01/14 05:24:10;;;;;;;3.55;1.80;;;5.40;57.50;;;;;;5015520;28;20479;-78
2021/01/14 05:26:36;;;;;;;3.17;1.77;;;5.40;57.60;;;;;;5016644;28;20060;-78
2021/01/14 05:29:19;;;;;;;5.15;2.30;;;5.30;57.60;;;;;;5016384;28;20371;-78
2021/01/14 05:31:46;;;;;;;5.60;1.52;;;5.30;57.60;;;;;;5028197;28;20122;-77
2021/01/14 05:34:14;;;;;;;5.85;2.25;;;5.20;57.60;;;;;;4996921;28;20053;-78
2021/01/14 05:37:05;;;;;;;8.65;2.92;;;5.20;57.70;;;;;;5015114;28;20028;-78
2021/01/14 05:39:40;;;;;;;4.75;2.38;;;5.10;57.90;;;;;;5016236;28;20026;-78
2021/01/14 05:42:09;;;;;;;3.30;1.60;;;5.10;57.80;;;;;;5016423;28;20105;-78
2021/01/14 05:44:37;;;;;;;5.03;2.10;;;5.00;57.80;;;;;;5016328;28;20479;-78
2021/01/14 05:47:23;;;;;;;6.97;1.83;;;5.00;57.80;;;;;;5016398;28;20052;-78
2021/01/14 05:50:06;;;;;;;7.45;1.75;;;5.00;57.80;;;;;;5030956;28;20033;-78
2021/01/14 05:52:33;;;;;;;3.88;1.83;;;4.90;57.90;;;;;;4996631;28;20057;-78
2021/01/14 05:55:11;;;;;;;3.38;1.65;;;4.90;57.80;;;;;;5025593;28;20065;-78
2021/01/14 05:57:39;;;;;;;5.93;2.28;;;4.90;57.90;;;;;;5015996;28;20434;-78
2021/01/14 06:00:14;;;;;;;5.03;2.08;;;4.80;57.90;;;;;;5015819;28;20045;-78
2021/01/14 06:02:41;;;;;;;3.83;1.60;;;4.80;58.00;;;;;;5015768;28;20048;-78
2021/01/14 06:05:32;;;;;;;6.30;2.05;;;4.70;57.90;;;;;;5015991;28;20026;-78
2021/01/14 06:08:01;;;;;;;4.45;2.10;;;4.70;57.90;;;;;;5014614;28;20026;-78
2021/01/14 06:10:34;;;;;;;2.85;1.48;;;4.60;57.90;;;;;;5015540;28;20091;-78
2021/01/14 06:13:00;;;;;;;3.78;1.27;;;4.60;57.90;;;;;;5015601;28;20510;-78
2021/01/14 06:15:26;;;;;;;4.00;1.85;;;4.60;57.90;;;;;;5014279;28;20033;-78
2021/01/14 06:17:54;;;;;;;2.97;1.65;;;4.60;57.90;;;;;;5015945;28;20022;-78
2021/01/14 06:20:19;;;;;;;8.27;2.13;;;4.60;57.80;;;;;;5015419;28;20606;-78
2021/01/14 06:22:45;;;;;;;9.52;2.38;;;4.60;57.80;;;;;;5014533;28;20042;-78
2021/01/14 06:25:12;;;;;;;5.60;1.65;;;4.50;57.60;;;;;;5015550;28;20052;-78
2021/01/14 06:27:38;;;;;;;6.13;1.98;;;4.50;57.60;;;;;;5030560;28;20029;-78
2021/01/14 06:30:06;;;;;;;4.47;1.70;;;4.50;57.60;;;;;;5013629;28;20557;-78
2021/01/14 06:32:37;;;;;;;4.20;1.52;;;4.40;57.60;;;;;;5014711;28;20038;-78
2021/01/14 06:35:05;;;;;;;3.25;1.75;;;4.40;57.40;;;;;;5015717;28;20474;-78
2021/01/14 06:37:36;;;;;;;6.25;1.85;;;4.40;57.30;;;;;;5014765;28;20125;-78
2021/01/14 06:40:03;;;;;;;2.33;1.30;;;4.40;57.20;;;;;;5014905;28;20479;-78
2021/01/14 06:42:34;;;;;;;3.17;1.83;;;4.40;57.20;;;;;;5014936;28;20037;-77
2021/01/14 06:45:08;;;;;;;3.95;1.75;;;4.40;57.20;;;;;;5015016;28;20057;-78
2021/01/14 06:47:43;;;;;;;3.80;1.88;;;4.50;57.30;;;;;;5015412;28;20382;-78
2021/01/14 06:50:18;;;;;;;9.45;1.90;;;4.50;57.40;;;;;;5014242;28;20391;-78
2021/01/14 06:53:09;;;;;;;7.18;1.75;;;4.50;57.10;;;;;;5014689;28;20034;-78
2021/01/14 06:55:38;;;;;;;5.95;2.08;;;4.60;57.10;;;;;;5015351;28;20418;-77
2021/01/14 06:58:15;;;;;;;3.67;1.42;;;4.60;57.00;;;;;;5014877;28;20056;-78
2021/01/14 07:00:48;;;;;;;4.72;2.13;;;4.70;57.00;;;;;;5013765;28;20036;-78
2021/01/14 07:03:19;;;;;;;3.65;1.80;;;4.80;57.10;;;;;;5015195;28;20030;-78
2021/01/14 07:05:59;;;;;;;5.30;2.03;;;4.80;56.70;;;;;;5015078;28;20084;-78
2021/01/14 07:08:57;;;;;;;3.03;1.58;;;4.80;56.30;;;;;;5013910;28;20053;-78
2021/01/14 07:11:23;;;;;;;5.18;1.50;;;4.90;56.10;;;;;;5009100;28;20034;-78
2021/01/14 07:13:51;;;;;;;5.43;1.52;;;4.90;56.30;;;;;;5014404;28;20402;-78
2021/01/14 07:16:19;;;;;;;5.20;1.80;;;5.00;55.60;;;;;;5012503;28;20525;-78
2021/01/14 07:18:45;;;;;;;7.10;1.70;;;5.00;55.10;;;;;;5015097;28;20034;-78
2021/01/14 07:21:19;;;;;;;6.55;1.80;;;5.00;55.20;;;;;;5013087;28;20517;-78
2021/01/14 07:23:58;;;;;;;5.40;1.60;;;5.10;54.80;;;;;;5014632;28;20075;-79
2021/01/14 07:26:25;;;;;;;6.43;2.25;;;5.10;54.10;;;;;;5013262;28;20026;-78
2021/01/14 07:28:52;;;;;;;4.03;1.30;;;5.10;53.90;;;;;;5029371;28;20415;-78
2021/01/14 07:31:28;;;;;;;7.13;1.30;;;5.20;53.80;;;;;;5029601;28;20030;-79
2021/01/14 07:33:54;;;;;;;8.60;1.83;;;5.20;53.30;;;;;;5028911;28;20022;-78
2021/01/14 07:36:21;;;;;;;3.58;1.13;;;5.20;53.30;;;;;;5013095;28;20034;-78
2021/01/14 07:38:49;;;;;;;8.85;1.40;;;5.30;53.30;;;;;;5014603;28;20025;-78
2021/01/14 07:41:16;;;;;;;3.25;1.50;;;5.30;52.90;;;;;;5034204;28;20033;-78
2021/01/14 07:43:45;;;;;;;5.50;1.58;;;5.30;52.90;;;;;;5033946;28;20028;-78
2021/01/14 07:46:23;;;;;;;10.43;1.20;;;5.40;52.70;;;;;;5045104;28;20387;-78
2021/01/14 07:48:51;;;;;;;3.85;1.17;;;5.40;52.10;;;;;;5011557;28;20472;-79
2021/01/14 07:51:18;;;;;;;6.78;1.33;;;5.40;52.30;;;;;;5013207;28;20026;-79
2021/01/14 07:54:04;;;;;;;4.55;1.17;;;5.40;51.70;;;;;;5012902;28;20026;-78
2021/01/14 07:56:31;;;;;;;2.80;0.90;;;5.50;52.10;;;;;;5011775;28;20111;-78
2021/01/14 07:59:00;;;;;;;8.25;1.27;;;5.50;51.80;;;;;;5007772;28;20088;-79
2021/01/14 08:01:25;;;;;;;7.90;1.20;;;5.50;51.70;;;;;;5012100;28;20030;-79
2021/01/14 08:03:51;;;;;;;7.22;1.00;;;5.60;51.80;;;;;;5015956;28;20036;-79
2021/01/14 08:06:29;;;;;;;3.63;1.10;;;5.60;51.40;;;;;;5015135;28;20025;-79
2021/01/14 08:08:56;;;;;;;6.60;1.02;;;5.60;51.90;;;;;;5014576;28;20057;-79
2021/01/14 08:11:24;;;;;;;5.75;1.00;;;5.60;52.40;;;;;;5014890;28;20025;-79
2021/01/14 08:14:00;;;;;;;6.07;1.17;;;5.60;52.30;;;;;;5012288;28;20495;-79
2021/01/14 08:16:51;;;;;;;5.20;1.10;;;5.60;52.40;;;;;;5030682;28;20049;-79
2021/01/14 08:19:23;;;;;;;4.82;1.20;;;5.50;52.30;;;;;;5012066;28;20459;-79
2021/01/14 08:21:58;;;;;;;5.35;1.33;;;5.60;52.50;;;;;;5014127;28;20038;-79
2021/01/14 08:24:45;;;;;;;4.75;1.50;;;5.60;52.90;;;;;;5013303;28;20097;-78
2021/01/14 08:27:22;;;;;;;4.40;0.88;;;5.70;52.60;;;;;;5013563;28;20104;-78
2021/01/14 08:30:06;;;;;;;5.47;1.40;;;5.70;52.00;;;;;;5013311;28;20022;-78
2021/01/14 08:32:45;;;;;;;8.10;2.28;;;5.90;52.40;;;;;;5012273;28;20066;-78
2021/01/14 08:35:16;;;;;;;6.53;1.30;;;6.00;51.90;;;;;;5012792;28;20022;-79
2021/01/14 08:38:02;;;;;;;3.30;1.20;;;6.00;51.30;;;;;;5013260;28;20105;-79
2021/01/14 08:40:33;;;;;;;5.97;1.42;;;6.10;51.20;;;;;;5013291;28;20022;-77
2021/01/14 08:43:08;;;;;;;7.35;1.42;;;6.20;51.20;;;;;;5009983;28;20034;-79
2021/01/14 08:45:43;;;;;;;3.83;1.20;;;6.30;50.80;;;;;;5013552;28;20030;-79
2021/01/14 08:48:25;;;;;;;10.55;1.20;;;6.40;50.80;;;;;;5013194;28;20076;-78
2021/01/14 08:50:58;;;;;;;6.38;1.30;;;6.50;51.20;;;;;;5011800;28;20037;-79
2021/01/14 08:53:29;;;;;;;7.03;1.50;;;6.60;51.30;;;;;;5011907;28;20018;-79
2021/01/14 08:56:00;;;;;;;5.10;1.20;;;6.70;50.00;;;;;;5028698;28;20049;-79
2021/01/14 08:58:38;;;;;;;4.35;1.10;;;6.80;49.60;;;;;;5012526;28;20086;-79
2021/01/14 09:01:30;;;;;;;5.15;1.27;;;6.90;50.00;;;;;;5007322;28;20029;-79
2021/01/14 09:03:56;;;;;;;3.25;1.30;;;6.90;49.80;;;;;;5012537;28;20101;-79
2021/01/14 09:06:30;;;;;;;3.13;1.00;;;7.00;50.30;;;;;;5027248;28;20041;-78
2021/01/14 09:08:59;;;;;;;3.60;0.95;;;7.10;50.00;;;;;;4999526;28;20029;-79
2021/01/14 09:11:25;;;;;;;3.22;1.00;;;7.20;49.90;;;;;;5011701;28;20034;-79
2021/01/14 09:14:11;;;;;;;3.53;1.10;;;7.30;49.90;;;;;;5011811;28;20100;-79
2021/01/14 09:16:39;;;;;;;5.07;1.20;;;7.30;49.30;;;;;;5008066;28;20493;-79
2021/01/14 09:19:21;;;;;;;4.35;1.25;;;7.40;49.60;;;;;;5011796;28;20022;-79
2021/01/14 09:21:48;;;;;;;4.55;1.38;;;7.40;49.10;;;;;;5009797;28;20107;-79
2021/01/14 09:24:16;;;;;;;4.38;1.17;;;7.40;49.60;;;;;;5012111;28;20415;-78
2021/01/14 09:26:43;;;;;;;3.88;1.50;;;7.50;49.70;;;;;;5016203;28;20416;-79
2021/01/14 09:29:13;;;;;;;5.25;1.48;;;7.60;49.50;;;;;;5014730;28;20463;-79
2021/01/14 09:31:40;;;;;;;4.55;0.93;;;7.70;49.40;;;;;;5012509;28;20030;-79
2021/01/14 09:34:06;;;;;;;5.15;1.80;;;7.80;49.70;;;;;;5015043;28;20022;-79
2021/01/14 09:36:35;;;;;;;5.10;1.40;;;7.90;49.30;;;;;;5013434;28;20030;-79
2021/01/14 09:39:07;;;;;;;3.38;1.55;;;7.90;49.20;;;;;;5014257;28;20391;-79
2021/01/14 09:41:37;;;;;;;4.80;2.10;;;8.00;48.70;;;;;;5015546;28;20026;-78
2021/01/14 09:44:04;;;;;;;4.97;1.50;;;7.90;48.20;;;;;;5014646;28;20029;-79
2021/01/14 09:46:34;;;;;;;3.45;1.33;;;7.90;48.20;;;;;;5016338;28;20050;-79
2021/01/14 09:49:04;;;;;;;2.97;1.13;;;7.90;48.20;;;;;;5015465;28;20018;-80
2021/01/14 09:51:30;;;;;;;4.78;1.00;;;7.90;48.30;;;;;;5013915;28;20101;-79
2021/01/14 09:53:56;;;;;;;5.72;1.75;;;8.00;48.60;;;;;;5013148;28;20034;-78
2021/01/14 09:56:24;;;;;;;4.15;1.85;;;8.00;48.90;;;;;;5012694;28;20035;-79
2021/01/14 09:58:55;;;;;;;2.55;0.77;;;8.00;48.50;;;;;;5029213;28;20027;-78
2021/01/14 10:01:27;;;;;;;4.38;1.20;;;8.10;48.40;;;;;;5011922;28;20022;-78
2021/01/14 10:04:22;;;;;;;4.03;0.95;;;8.10;48.40;;;;;;5012753;28;20022;-79
2021/01/14 10:07:01;;;;;;;;;;;8.10;47.70;;;;;;5012883;28;20029;-78
2021/01/14 10:09:27;;;;;;;5.13;1.60;;;8.10;48.40;;;;;;5011573;28;19948;-78
2021/01/14 10:11:54;;;;;;;17.48;1.42;;;8.10;47.60;;;;;;5030437;28;20026;-78
2021/01/14 10:14:21;;;;;;;7.50;1.33;;;8.00;47.10;;;;;;5015037;28;20026;-78
2021/01/14 10:16:48;;;;;;;4.05;1.00;;;8.00;47.40;;;;;;5011432;28;20080;-78
2021/01/14 10:19:19;;;;;;;2.78;0.90;;;8.00;47.50;;;;;;5012618;28;20104;-78
2021/01/14 10:21:46;;;;;;;4.75;1.00;;;7.90;47.50;;;;;;5016835;28;20038;-78
2021/01/14 10:24:28;;;;;;;4.55;1.20;;;7.90;47.50;;;;;;5014317;28;20691;-79
2021/01/14 10:27:11;;;;;;;5.90;1.13;;;7.80;47.30;;;;;;5006563;28;20026;-78
2021/01/14 10:29:39;;;;;;;4.65;1.05;;;7.80;47.90;;;;;;5014026;28;20032;-79
2021/01/14 10:32:16;;;;;;;3.78;1.15;;;7.80;48.10;;;;;;5012762;28;20041;-78
2021/01/14 10:34:47;;;;;;;3.15;1.00;;;7.70;48.30;;;;;;5029661;28;20380;-79
2021/01/14 10:37:27;;;;;;;3.85;1.08;;;7.70;47.90;;;;;;5013394;28;20172;-79
2021/01/14 10:39:55;;;;;;;3.42;1.10;;;7.60;47.90;;;;;;5024240;28;20026;-78
2021/01/14 10:42:33;;;;;;;3.92;1.20;;;7.60;47.70;;;;;;5015710;28;20026;-78
2021/01/14 10:45:03;;;;;;;5.75;1.30;;;7.50;47.90;;;;;;5014726;28;20029;-78
2021/01/14 10:47:29;;;;;;;2.95;1.27;;;7.50;48.00;;;;;;5012017;28;20491;-79
2021/01/14 10:49:55;;;;;;;6.53;1.02;;;7.40;48.20;;;;;;5013301;28;20033;-78
2021/01/14 10:52:21;;;;;;;4.88;1.10;;;7.40;48.10;;;;;;5012799;28;20118;-78
2021/01/14 10:55:01;;;;;;;6.38;1.00;;;7.30;47.90;;;;;;5014756;28;20086;-78
2021/01/14 10:57:52;;;;;;;3.92;1.30;;;7.30;48.40;;;;;;5013468;28;20108;-77
2021/01/14 11:00:20;;;;;;;2.67;1.13;;;7.30;48.50;;;;;;5012457;28;20463;-77
2021/01/14 11:02:46;;;;;;;6.53;1.58;;;7.30;48.70;;;;;;5009944;28;20038;-76
2021/01/14 11:05:13;;;;;;;3.28;1.08;;;7.30;48.20;;;;;;5012377;28;20018;-77
2021/01/14 11:07:39;;;;;;;3.55;1.13;;;7.20;48.00;;;;;;5013403;28;20021;-77
2021/01/14 11:10:09;;;;;;;3.42;1.00;;;7.20;48.40;;;;;;5011559;28;20034;-77
2021/01/14 11:13:04;;;;;;;2.88;1.00;;;7.20;48.70;;;;;;5014723;28;20044;-77
2021/01/14 11:15:30;;;;;;;;;;;7.20;49.30;;;;;;5012431;28;20033;-77
2021/01/14 11:17:55;;;;;;;3.75;1.25;;;7.30;49.30;;;;;;5013139;28;19909;-78
2021/01/14 11:20:21;;;;;;;3.17;1.02;;;7.30;48.70;;;;;;5014320;28;20056;-78
2021/01/14 11:22:47;;;;;;;5.57;0.90;;;7.30;48.90;;;;;;5012894;28;20411;-78
2021/01/14 11:25:13;;;;;;;3.88;1.05;;;7.30;48.90;;;;;;5012768;28;20491;-78
2021/01/14 11:27:39;;;;;;;5.18;1.85;;;7.30;48.60;;;;;;5012786;28;20040;-78
2021/01/14 11:30:06;;;;;;;3.40;1.00;;;7.40;49.10;;;;;;5028869;28;20034;-78
2021/01/14 11:32:32;;;;;;;2.92;1.13;;;7.40;48.70;;;;;;5014728;28;20047;-78
2021/01/14 11:34:58;;;;;;;1.92;0.80;;;7.50;49.30;;;;;;5014816;28;20072;-78
2021/01/14 11:37:23;;;;;;;7.20;1.40;;;7.50;48.20;;;;;;5009695;28;20030;-78
2021/01/14 11:39:49;;;;;;;2.03;0.75;;;7.50;48.50;;;;;;5011698;28;20030;-77
2021/01/14 11:42:15;;;;;;;5.28;1.48;;;7.60;48.90;;;;;;5010270;28;20037;-77
2021/01/14 11:44:41;;;;;;;1.75;0.85;;;7.70;48.80;;;;;;5011608;28;20105;-78
2021/01/14 11:47:06;;;;;;;4.68;1.10;;;7.80;48.10;;;;;;4994478;28;20034;-78
2021/01/14 11:49:33;;;;;;;2.83;1.10;;;7.80;48.00;;;;;;5010898;28;20087;-78
2021/01/14 11:51:58;;;;;;;4.30;1.13;;;7.80;47.70;;;;;;5012788;28;20076;-78
2021/01/14 11:54:24;;;;;;;3.47;0.98;;;7.80;47.70;;;;;;5011889;28;20476;-78
2021/01/14 11:56:54;;;;;;;5.38;1.20;;;7.90;47.90;;;;;;5012513;28;20117;-77
2021/01/14 11:59:20;;;;;;;4.28;1.27;;;7.90;47.60;;;;;;5012654;28;20080;-77
2021/01/14 12:01:45;;;;;;;3.95;0.85;;;8.00;47.90;;;;;;5011051;28;20105;-77
2021/01/14 12:04:11;;;;;;;2.42;1.00;;;8.00;47.60;;;;;;5012387;28;20479;-77
2021/01/14 12:06:36;;;;;;;2.55;0.88;;;8.00;47.60;;;;;;5012386;28;20028;-76
2021/01/14 12:09:02;;;;;;;1.90;0.88;;;8.00;47.50;;;;;;5013171;28;20029;-80
2021/01/14 12:11:28;;;;;;;4.60;1.40;;;8.00;47.50;;;;;;5015390;28;20032;-79
2021/01/14 12:13:54;;;;;;;2.97;1.13;;;8.00;47.60;;;;;;5015528;28;20044;-80
2021/01/14 12:16:20;;;;;;;4.22;1.58;;;8.00;47.50;;;;;;5013847;28;20368;-81
2021/01/14 12:18:46;;;;;;;5.03;1.70;;;7.90;47.50;;;;;;5011330;28;20077;-80
2021/01/14 12:21:15;;;;;;;3.15;1.40;;;7.90;47.50;;;;;;5013765;28;20172;-81
2021/01/14 12:23:50;;;;;;;4.38;1.30;;;7.90;47.30;;;;;;5013550;28;20124;-81
2021/01/14 12:26:15;;;;;;;5.13;1.52;;;7.90;47.30;;;;;;5014516;28;20022;-80
2021/01/14 12:28:41;;;;;;;2.92;1.10;;;7.80;47.30;;;;;;5013034;28;20080;-81
2021/01/14 12:31:08;;;;;;;2.55;1.30;;;7.80;47.90;;;;;;5014146;28;20066;-80
2021/01/14 12:33:34;;;;;;;2.33;1.05;;;7.70;47.90;;;;;;5014267;28;20068;-81
2021/01/14 12:35:59;;;;;;;4.00;1.40;;;7.70;47.80;;;;;;5022370;28;20025;-81
2021/01/14 12:38:26;;;;;;;4.78;1.98;;;7.60;47.60;;;;;;5034211;28;20029;-81
2021/01/14 12:40:51;;;;;;;1.70;1.10;;;7.60;47.80;;;;;;5034404;28;20024;-79
2021/01/14 12:43:17;;;;;;;2.35;1.17;;;7.60;48.00;;;;;;5032512;28;20022;-81
2021/01/14 12:45:43;;;;;;;5.38;1.55;;;7.60;48.30;;;;;;5033904;28;20021;-79
2021/01/14 12:48:09;;;;;;;5.03;2.13;;;7.50;48.00;;;;;;5028657;28;20037;-81
2021/01/14 12:50:34;;;;;;;2.88;1.20;;;7.50;48.10;;;;;;5013879;28;20437;-79
2021/01/14 12:53:00;;;;;;;4.05;1.38;;;7.50;48.20;;;;;;5013747;28;20025;-81
2021/01/14 12:55:26;;;;;;;2.80;1.50;;;7.40;48.10;;;;;;5013053;28;20026;-80
2021/01/14 12:57:52;;;;;;;4.47;1.50;;;7.30;48.20;;;;;;5014238;28;20137;-80
2021/01/14 13:00:18;;;;;;;2.72;1.20;;;7.30;48.40;;;;;;5015811;28;20026;-80
2021/01/14 13:02:44;;;;;;;4.95;1.33;;;7.30;48.60;;;;;;5017107;28;20382;-81
2021/01/14 13:05:10;;;;;;;3.40;1.23;;;7.20;48.60;;;;;;5017311;28;20173;-80
2021/01/14 13:07:36;;;;;;;5.07;1.65;;;7.20;48.70;;;;;;5032420;28;20026;-80
2021/01/14 13:10:05;;;;;;;6.63;1.60;;;7.20;48.70;;;;;;5017760;28;20037;-80
2021/01/14 13:12:31;;;;;;;6.13;1.58;;;7.10;48.90;;;;;;5024801;28;20497;-80